Time;durP1;ratioP1;P1;durP2;ratioP2;P2;SDS_P1;SDS_P2;PMS_P1;PMS_P2;Temp;Humidity;BMP_temperature;BMP_pressure;BME280_temperature;BME280_humidity;BME280_pressure;Samples;Min_cycle;Max_cycle;Signal;HPM_P1;HPM_P2
2020/12/06 00:02:02;;;;;;;19.85;13.15;;;3.10;99.90;;;;;;5066906;28;20907;-76
2020/12/06 00:04:29;;;;;;;16.40;12.40;;;3.10;99.90;;;;;;5067271;28;20212;-75
2020/12/06 00:06:57;;;;;;;18.58;13.05;;;3.10;99.90;;;;;;5066181;28;20207;-75
2020/12/06 00:09:23;;;;;;;16.13;11.57;;;3.00;99.90;;;;;;5065270;28;20236;-75
2020/12/06 00:11:49;;;;;;;17.88;12.05;;;3.00;99.90;;;;;;5053408;28;20217;-75
2020/12/06 00:14:15;;;;;;;19.42;13.15;;;3.00;99.90;;;;;;5045053;28;20592;-74
2020/12/06 00:16:42;;;;;;;15.30;11.73;;;3.00;99.90;;;;;;5045617;28;20307;-75
2020/12/06 00:19:08;;;;;;;17.35;13.10;;;3.00;99.90;;;;;;5045410;28;20259;-74
2020/12/06 00:21:34;;;;;;;18.85;12.60;;;3.00;99.90;;;;;;5045379;28;20617;-74
2020/12/06 00:24:04;;;;;;;20.33;14.10;;;3.00;99.90;;;;;;5045031;28;20692;-75
2020/12/06 00:26:31;;;;;;;17.33;12.40;;;3.00;99.90;;;;;;5045865;28;20582;-75
2020/12/06 00:28:57;;;;;;;16.50;11.95;;;3.00;99.90;;;;;;5045485;28;20216;-75
2020/12/06 00:31:23;;;;;;;18.10;12.70;;;3.10;99.90;;;;;;5044825;28;20576;-76
2020/12/06 00:33:50;;;;;;;19.45;11.88;;;3.10;99.90;;;;;;5045050;28;20197;-75
2020/12/06 00:36:16;;;;;;;16.35;12.52;;;3.00;99.90;;;;;;5045190;28;20212;-74
2020/12/06 00:38:43;;;;;;;16.52;13.15;;;3.00;99.90;;;;;;5045107;28;20216;-75
2020/12/06 00:41:11;;;;;;;18.15;13.20;;;3.10;99.90;;;;;;5050238;28;20204;-75
2020/12/06 00:43:38;;;;;;;16.15;12.90;;;3.00;99.90;;;;;;5062827;28;20595;-75
2020/12/06 00:46:05;;;;;;;16.25;12.35;;;3.00;99.90;;;;;;5063641;28;20587;-75
2020/12/06 00:48:31;;;;;;;15.15;10.98;;;3.00;99.90;;;;;;5078802;22;20232;-76
2020/12/06 00:50:58;;;;;;;14.93;11.15;;;3.00;99.90;;;;;;5048426;28;20209;-75
2020/12/06 00:53:24;;;;;;;16.65;13.13;;;3.00;99.90;;;;;;5048368;28;20727;-75
2020/12/06 00:55:50;;;;;;;15.32;11.55;;;3.00;99.90;;;;;;5048904;28;20201;-76
2020/12/06 00:58:17;;;;;;;16.52;12.45;;;3.00;99.90;;;;;;5048870;28;20201;-75
2020/12/06 01:00:44;;;;;;;18.13;11.88;;;3.10;99.90;;;;;;5048666;28;20299;-74
2020/12/06 01:03:10;;;;;;;18.10;12.25;;;3.10;99.90;;;;;;5048399;28;20232;-77
2020/12/06 01:05:36;;;;;;;15.05;12.18;;;3.10;99.90;;;;;;5048860;28;20565;-76
2020/12/06 01:08:03;;;;;;;17.33;12.60;;;3.10;99.90;;;;;;5048534;28;20205;-74
2020/12/06 01:10:29;;;;;;;16.63;12.40;;;3.10;99.90;;;;;;5054395;28;20248;-75
2020/12/06 01:12:55;;;;;;;17.95;12.05;;;3.10;99.90;;;;;;5058137;28;20223;-74
2020/12/06 01:15:26;;;;;;;16.65;12.88;;;3.10;99.90;;;;;;5065494;28;20215;-75
2020/12/06 01:17:52;;;;;;;15.75;12.00;;;3.10;99.90;;;;;;5067943;28;20193;-76
2020/12/06 01:20:18;;;;;;;16.23;12.70;;;3.10;99.90;;;;;;5067863;28;20200;-76
2020/12/06 01:22:45;;;;;;;15.50;11.60;;;3.10;99.90;;;;;;5057734;28;20225;-76
2020/12/06 01:25:11;;;;;;;16.80;12.38;;;3.10;99.90;;;;;;5052771;28;20200;-76
2020/12/06 01:27:37;;;;;;;16.40;12.57;;;3.10;99.90;;;;;;5067801;28;20223;-75
2020/12/06 01:30:04;;;;;;;15.25;12.38;;;3.10;99.90;;;;;;5067564;28;20688;-73
2020/12/06 01:32:32;;;;;;;15.55;11.20;;;3.10;99.90;;;;;;5055079;28;20311;-75
2020/12/06 01:34:59;;;;;;;15.00;11.68;;;3.10;99.90;;;;;;5044934;28;20211;-75
2020/12/06 01:37:25;;;;;;;16.90;12.80;;;3.10;99.90;;;;;;5045408;28;20201;-75
2020/12/06 01:39:51;;;;;;;16.27;11.52;;;3.10;99.90;;;;;;5051490;28;20197;-75
2020/12/06 01:42:17;;;;;;;16.92;12.50;;;3.00;99.90;;;;;;5046608;28;20217;-75
2020/12/06 01:44:43;;;;;;;16.63;10.25;;;3.10;99.90;;;;;;5048504;28;20201;-75
2020/12/06 01:47:11;;;;;;;13.77;10.98;;;3.10;99.90;;;;;;5047826;28;20209;-75
2020/12/06 01:49:38;;;;;;;14.15;10.68;;;3.10;99.90;;;;;;5044266;28;20224;-75
2020/12/06 01:52:06;;;;;;;15.02;11.95;;;3.20;99.90;;;;;;5047732;28;20716;-74
2020/12/06 01:54:34;;;;;;;15.63;12.15;;;3.10;99.90;;;;;;5048494;28;20209;-75
2020/12/06 01:57:00;;;;;;;15.82;11.90;;;3.10;99.90;;;;;;5051711;28;20201;-75
2020/12/06 01:59:27;;;;;;;15.65;11.75;;;3.10;99.90;;;;;;5052108;28;20659;-75
2020/12/06 02:01:55;;;;;;;17.75;11.77;;;3.10;99.90;;;;;;5051047;28;20698;-75
2020/12/06 02:04:24;;;;;;;15.52;11.98;;;3.20;99.90;;;;;;5051813;28;20213;-76
2020/12/06 02:06:51;;;;;;;16.73;11.40;;;3.20;99.90;;;;;;5051486;28;20212;-75
2020/12/06 02:09:18;;;;;;;14.65;10.75;;;3.20;99.90;;;;;;5056317;28;20247;-75
2020/12/06 02:11:44;;;;;;;15.10;11.88;;;3.10;99.90;;;;;;5051412;28;20221;-75
2020/12/06 02:14:10;;;;;;;14.50;11.50;;;3.10;99.90;;;;;;5050990;28;20209;-75
2020/12/06 02:16:37;;;;;;;16.45;11.15;;;3.10;99.90;;;;;;5051416;28;20247;-75
2020/12/06 02:19:04;;;;;;;13.13;10.90;;;3.10;99.90;;;;;;5051204;28;20212;-74
2020/12/06 02:21:48;;;;;;;13.27;10.55;;;3.20;99.90;;;;;;5051358;28;20212;-75
2020/12/06 02:24:18;;;;;;;15.25;11.70;;;3.20;99.90;;;;;;5051099;28;20258;-75
2020/12/06 02:26:46;;;;;;;15.07;10.15;;;3.20;99.90;;;;;;5051355;28;20209;-75
2020/12/06 02:29:13;;;;;;;17.42;11.05;;;3.10;99.90;;;;;;5051032;28;20232;-75
2020/12/06 02:31:40;;;;;;;16.50;12.52;;;3.20;99.90;;;;;;5051023;28;20232;-75
2020/12/06 02:34:08;;;;;;;13.30;10.98;;;3.20;99.90;;;;;;5050918;28;20274;-75
2020/12/06 02:36:36;;;;;;;13.77;10.75;;;3.10;99.90;;;;;;5051013;28;20216;-75
2020/12/06 02:39:04;;;;;;;14.93;10.68;;;3.10;99.90;;;;;;5053785;28;20624;-74
2020/12/06 02:41:37;;;;;;;17.92;12.93;;;3.10;99.90;;;;;;5053248;28;20208;-75
2020/12/06 02:44:04;;;;;;;15.80;12.25;;;3.10;99.90;;;;;;5050209;28;20585;-75
2020/12/06 02:46:31;;;;;;;18.75;13.30;;;3.20;99.90;;;;;;5051297;28;20598;-75
2020/12/06 02:48:57;;;;;;;19.90;13.25;;;3.20;99.90;;;;;;5050499;28;20205;-75
2020/12/06 02:51:23;;;;;;;14.27;12.07;;;3.20;99.90;;;;;;5050905;28;20204;-75
2020/12/06 02:53:50;;;;;;;19.65;12.68;;;3.20;99.90;;;;;;5050087;28;20201;-75
2020/12/06 02:56:16;;;;;;;13.38;11.65;;;3.20;99.90;;;;;;5050730;28;20683;-75
2020/12/06 02:58:43;;;;;;;17.58;12.02;;;3.20;99.90;;;;;;5050764;28;20204;-76
2020/12/06 03:01:09;;;;;;;18.55;13.80;;;3.20;99.90;;;;;;5050517;28;20228;-76
2020/12/06 03:03:35;;;;;;;16.35;12.27;;;3.20;99.90;;;;;;5050168;28;20221;-74
2020/12/06 03:06:01;;;;;;;15.93;12.65;;;3.20;99.90;;;;;;5050201;28;20572;-75
2020/12/06 03:08:29;;;;;;;17.67;13.35;;;3.20;99.90;;;;;;5049925;28;20201;-75
2020/12/06 03:10:56;;;;;;;19.55;13.30;;;3.20;99.90;;;;;;5055878;28;20221;-73
2020/12/06 03:13:22;;;;;;;18.30;13.38;;;3.20;99.90;;;;;;5050262;28;20217;-72
2020/12/06 03:15:48;;;;;;;18.50;13.52;;;3.10;99.90;;;;;;5050398;28;20227;-74
2020/12/06 03:18:14;;;;;;;18.48;12.77;;;3.20;99.90;;;;;;5050421;28;20201;-74
2020/12/06 03:20:40;;;;;;;19.60;12.85;;;3.20;99.90;;;;;;5050382;28;20566;-74
2020/12/06 03:23:07;;;;;;;21.02;14.20;;;3.20;99.90;;;;;;5049445;28;20228;-76
2020/12/06 03:25:34;;;;;;;17.50;13.63;;;3.20;99.90;;;;;;5050245;28;20200;-76
2020/12/06 03:28:01;;;;;;;18.05;13.40;;;3.20;99.90;;;;;;5050079;28;20205;-75
2020/12/06 03:30:27;;;;;;;19.10;13.15;;;3.10;99.90;;;;;;5050373;28;20244;-76
2020/12/06 03:32:53;;;;;;;19.60;13.07;;;3.10;99.90;;;;;;5049297;28;20234;-76
2020/12/06 03:35:19;;;;;;;17.73;12.90;;;3.10;99.90;;;;;;5050158;28;20197;-75
2020/12/06 03:37:46;;;;;;;20.48;14.43;;;3.10;99.90;;;;;;5050315;28;20205;-76
2020/12/06 03:40:12;;;;;;;21.30;14.40;;;3.10;99.90;;;;;;5055704;28;20690;-76
2020/12/06 03:42:38;;;;;;;24.85;15.43;;;3.10;99.90;;;;;;5067369;28;20220;-75
2020/12/06 03:45:05;;;;;;;25.73;15.77;;;3.10;99.90;;;;;;5069626;28;20230;-76
2020/12/06 03:47:31;;;;;;;21.13;15.05;;;3.10;99.90;;;;;;5069584;28;20204;-76
2020/12/06 03:49:57;;;;;;;25.48;16.63;;;3.10;99.90;;;;;;5069262;28;20220;-75
2020/12/06 03:52:24;;;;;;;22.85;15.45;;;3.10;99.90;;;;;;5068977;28;20588;-76
2020/12/06 03:54:50;;;;;;;21.70;15.05;;;3.00;99.90;;;;;;5069489;28;20200;-76
2020/12/06 03:57:16;;;;;;;23.02;16.10;;;3.00;99.90;;;;;;5069394;28;20203;-75
2020/12/06 03:59:42;;;;;;;21.48;15.50;;;3.00;99.90;;;;;;5069399;28;20200;-74
2020/12/06 04:02:10;;;;;;;26.83;17.38;;;3.00;99.90;;;;;;5068527;28;20228;-74
2020/12/06 04:04:36;;;;;;;24.42;16.15;;;3.00;99.90;;;;;;5069590;28;20204;-75
2020/12/06 04:07:02;;;;;;;25.65;16.40;;;3.00;99.90;;;;;;5069067;28;20235;-74
2020/12/06 04:09:29;;;;;;;24.05;17.70;;;2.90;99.90;;;;;;5068652;28;20220;-74
2020/12/06 04:11:55;;;;;;;28.10;17.15;;;2.90;99.90;;;;;;5048376;28;20224;-75
2020/12/06 04:14:21;;;;;;;23.63;16.05;;;2.90;99.90;;;;;;5049386;28;20208;-77
2020/12/06 04:16:47;;;;;;;23.52;16.30;;;2.90;99.90;;;;;;5049127;28;20576;-74
2020/12/06 04:19:14;;;;;;;23.25;15.27;;;2.90;99.90;;;;;;5048957;28;20201;-75
2020/12/06 04:21:41;;;;;;;24.48;15.95;;;2.90;99.90;;;;;;5049146;28;20247;-76
2020/12/06 04:24:07;;;;;;;23.67;15.43;;;2.90;99.90;;;;;;5048699;28;20225;-76
2020/12/06 04:26:33;;;;;;;24.98;16.42;;;2.90;99.90;;;;;;5049348;28;20204;-76
2020/12/06 04:28:59;;;;;;;25.15;14.88;;;2.80;99.90;;;;;;5048767;28;20208;-76
2020/12/06 04:31:25;;;;;;;23.95;15.43;;;2.90;99.90;;;;;;5048942;28;20216;-75
2020/12/06 04:33:52;;;;;;;21.33;14.43;;;2.80;99.90;;;;;;5048350;28;20202;-75
2020/12/06 04:36:19;;;;;;;25.67;16.23;;;2.80;99.90;;;;;;5049091;28;20583;-76
2020/12/06 04:38:45;;;;;;;33.28;17.40;;;2.80;99.90;;;;;;5049555;28;20208;-76
2020/12/06 04:41:11;;;;;;;24.65;15.73;;;2.80;99.90;;;;;;5053713;28;20201;-76
2020/12/06 04:43:39;;;;;;;28.27;16.85;;;2.70;99.90;;;;;;5048374;28;20227;-76
2020/12/06 04:46:06;;;;;;;34.47;17.35;;;2.70;99.90;;;;;;5048610;28;20699;-75
2020/12/06 04:48:45;;;;;;;36.05;17.52;;;2.70;99.90;;;;;;5068308;28;20212;-75
2020/12/06 04:51:14;;;;;;;45.00;19.05;;;2.70;99.90;;;;;;5068321;28;20249;-76
2020/12/06 04:53:55;;;;;;;44.28;18.00;;;2.70;99.90;;;;;;5068476;28;20224;-75
2020/12/06 04:56:23;;;;;;;39.67;17.67;;;2.70;99.90;;;;;;5068927;28;20215;-75
2020/12/06 04:58:52;;;;;;;47.13;18.58;;;2.70;99.90;;;;;;5068814;28;20196;-75
2020/12/06 05:01:20;;;;;;;33.88;17.65;;;2.70;99.90;;;;;;5068571;28;20207;-75
2020/12/06 05:03:49;;;;;;;36.88;17.92;;;2.70;99.90;;;;;;5068189;28;20207;-76
2020/12/06 05:06:19;;;;;;;54.05;19.15;;;2.70;99.90;;;;;;5068373;28;20215;-75
2020/12/06 05:08:46;;;;;;;56.03;18.67;;;2.70;99.90;;;;;;5068666;28;20200;-74
2020/12/06 05:11:13;;;;;;;32.50;16.83;;;2.70;99.90;;;;;;5068252;28;20230;-76
2020/12/06 05:13:39;;;;;;;63.17;19.92;;;2.70;99.90;;;;;;5068041;28;20224;-76
2020/12/06 05:16:09;;;;;;;28.42;16.70;;;2.70;99.90;;;;;;5068689;28;20223;-75
2020/12/06 05:18:35;;;;;;;29.75;15.25;;;2.70;99.90;;;;;;5050493;28;20201;-75
2020/12/06 05:21:02;;;;;;;40.80;18.05;;;2.70;99.90;;;;;;5048344;28;20201;-76
2020/12/06 05:23:28;;;;;;;59.75;18.50;;;2.80;99.90;;;;;;5047810;28;20240;-76
2020/12/06 05:25:55;;;;;;;28.35;17.17;;;2.70;99.90;;;;;;5048406;28;20610;-76
2020/12/06 05:28:22;;;;;;;29.95;16.38;;;2.70;99.90;;;;;;5048290;28;20207;-76
2020/12/06 05:30:48;;;;;;;41.60;16.77;;;2.70;99.90;;;;;;5050091;28;20746;-76
2020/12/06 05:33:16;;;;;;;28.10;17.30;;;2.70;99.90;;;;;;5051538;28;20278;-75
2020/12/06 05:35:43;;;;;;;29.17;16.75;;;2.60;99.90;;;;;;5052319;28;20208;-75
2020/12/06 05:38:10;;;;;;;37.75;17.45;;;2.60;99.90;;;;;;5052105;28;20560;-75
2020/12/06 05:40:45;;;;;;;36.70;18.35;;;2.70;99.90;;;;;;5052015;28;20201;-76
2020/12/06 05:43:12;;;;;;;36.50;18.55;;;2.70;99.90;;;;;;5051340;28;20271;-75
2020/12/06 05:45:39;;;;;;;44.75;18.88;;;2.70;99.90;;;;;;5052238;28;20266;-75
2020/12/06 05:48:05;;;;;;;42.15;17.23;;;2.60;99.90;;;;;;5054930;28;20216;-75
2020/12/06 05:50:32;;;;;;;43.22;19.45;;;2.70;99.90;;;;;;5051450;28;20224;-76
2020/12/06 05:52:58;;;;;;;31.23;17.00;;;2.70;99.90;;;;;;5051263;28;20294;-76
2020/12/06 05:55:25;;;;;;;30.27;17.38;;;2.60;99.90;;;;;;5051485;28;20680;-76
2020/12/06 05:57:52;;;;;;;31.77;18.98;;;2.60;99.90;;;;;;5051187;28;20193;-76
2020/12/06 06:00:19;;;;;;;33.85;18.10;;;2.60;99.90;;;;;;5050670;28;20198;-76
2020/12/06 06:02:52;;;;;;;32.90;17.73;;;2.60;99.90;;;;;;5050510;28;20699;-76
2020/12/06 06:05:20;;;;;;;29.48;16.88;;;2.60;99.90;;;;;;5050830;28;20200;-76
2020/12/06 06:07:48;;;;;;;29.63;16.88;;;2.50;99.90;;;;;;5051020;28;20193;-76
2020/12/06 06:10:18;;;;;;;30.60;17.48;;;2.50;99.90;;;;;;5050549;28;20651;-76
2020/12/06 06:12:48;;;;;;;41.15;18.60;;;2.50;99.90;;;;;;5050435;28;20225;-74
2020/12/06 06:15:15;;;;;;;30.45;16.50;;;2.50;99.90;;;;;;5050646;28;20635;-76
2020/12/06 06:17:45;;;;;;;32.67;18.15;;;2.50;99.90;;;;;;5055919;28;20213;-75
2020/12/06 06:20:11;;;;;;;35.08;19.95;;;2.50;99.90;;;;;;5052713;28;20203;-74
2020/12/06 06:22:40;;;;;;;33.78;18.58;;;2.50;99.90;;;;;;5050752;28;20225;-74
2020/12/06 06:25:07;;;;;;;33.63;16.77;;;2.50;99.90;;;;;;5050907;28;20294;-75
2020/12/06 06:27:35;;;;;;;34.08;18.48;;;2.60;99.90;;;;;;5051723;28;20200;-74
2020/12/06 06:30:01;;;;;;;29.13;16.33;;;2.60;99.90;;;;;;5051128;28;20217;-74
2020/12/06 06:32:29;;;;;;;34.85;17.73;;;2.60;99.90;;;;;;5050273;28;20613;-73
2020/12/06 06:34:56;;;;;;;33.08;17.25;;;2.60;99.90;;;;;;5051080;28;20223;-74
2020/12/06 06:37:29;;;;;;;36.30;18.45;;;2.60;99.90;;;;;;5050454;28;20566;-74
2020/12/06 06:39:58;;;;;;;29.38;16.25;;;2.60;99.90;;;;;;5051034;28;20231;-74
2020/12/06 06:42:26;;;;;;;35.10;17.48;;;2.60;99.90;;;;;;5049624;28;20306;-75
2020/12/06 06:45:01;;;;;;;27.60;15.75;;;2.60;99.90;;;;;;5063000;28;20207;-75
2020/12/06 06:47:29;;;;;;;51.25;17.02;;;2.60;99.90;;;;;;5070247;28;20757;-76
2020/12/06 06:49:58;;;;;;;30.45;14.88;;;2.60;99.90;;;;;;5070213;28;20231;-75
2020/12/06 06:52:25;;;;;;;27.83;15.45;;;2.50;99.90;;;;;;5069355;28;20229;-74
2020/12/06 06:54:53;;;;;;;34.05;13.45;;;2.60;99.90;;;;;;5070697;28;20196;-75
2020/12/06 06:57:21;;;;;;;29.70;14.00;;;2.60;99.90;;;;;;5070298;28;20200;-74
2020/12/06 06:59:49;;;;;;;28.98;15.00;;;2.60;99.90;;;;;;5070043;28;20195;-73
2020/12/06 07:02:20;;;;;;;28.95;15.70;;;2.60;99.90;;;;;;5068677;28;20224;-73
2020/12/06 07:04:47;;;;;;;36.45;15.73;;;2.60;99.90;;;;;;5069664;28;20204;-75
2020/12/06 07:07:16;;;;;;;32.20;15.82;;;2.60;99.90;;;;;;5070236;28;20200;-75
2020/12/06 07:09:42;;;;;;;30.55;17.15;;;2.50;99.90;;;;;;5070685;28;20204;-74
2020/12/06 07:12:09;;;;;;;35.33;15.50;;;2.50;99.90;;;;;;5069622;28;20254;-74
2020/12/06 07:14:36;;;;;;;28.90;14.63;;;2.50;99.90;;;;;;5070397;28;20212;-73
2020/12/06 07:17:02;;;;;;;23.13;12.65;;;2.50;99.90;;;;;;5065351;28;20201;-76
2020/12/06 07:19:29;;;;;;;24.75;14.18;;;2.60;99.90;;;;;;5051536;28;20279;-74
2020/12/06 07:21:55;;;;;;;27.52;13.98;;;2.60;99.90;;;;;;5051041;28;20664;-76
2020/12/06 07:24:22;;;;;;;22.70;13.23;;;2.60;99.90;;;;;;5054461;28;20208;-78
2020/12/06 07:26:48;;;;;;;25.10;14.18;;;2.60;99.90;;;;;;5050746;28;20212;-76
2020/12/06 07:29:15;;;;;;;37.08;15.93;;;2.50;99.90;;;;;;5049900;28;20205;-77
2020/12/06 07:31:41;;;;;;;26.70;14.45;;;2.50;99.90;;;;;;5049783;28;20237;-77
2020/12/06 07:34:08;;;;;;;23.20;14.77;;;2.60;99.90;;;;;;5052016;28;20208;-77
2020/12/06 07:36:35;;;;;;;45.97;13.98;;;2.60;99.90;;;;;;5050089;28;20265;-77
2020/12/06 07:39:14;;;;;;;36.42;14.38;;;2.50;99.90;;;;;;5050120;28;20209;-77
2020/12/06 07:41:49;;;;;;;33.30;14.32;;;2.50;99.90;;;;;;5050537;28;20221;-77
2020/12/06 07:44:15;;;;;;;23.38;12.25;;;2.60;99.90;;;;;;5049741;28;20204;-77
2020/12/06 07:46:42;;;;;;;27.00;14.60;;;2.60;99.90;;;;;;5053083;28;20208;-78
2020/12/06 07:49:08;;;;;;;44.78;16.52;;;2.70;99.90;;;;;;5049329;28;20220;-78
2020/12/06 07:51:34;;;;;;;43.90;15.02;;;2.70;99.90;;;;;;5049485;28;20224;-77
2020/12/06 07:54:02;;;;;;;38.78;13.85;;;2.70;99.90;;;;;;5048629;28;20201;-77
2020/12/06 07:56:29;;;;;;;45.95;15.32;;;2.60;99.90;;;;;;5049881;28;20205;-79
2020/12/06 07:59:24;;;;;;;44.85;15.27;;;2.60;99.90;;;;;;5049335;28;20209;-78
2020/12/06 08:01:53;;;;;;;25.83;13.43;;;2.60;99.90;;;;;;5057011;28;20308;-76
2020/12/06 08:04:23;;;;;;;31.27;13.60;;;2.60;99.90;;;;;;5058795;28;20219;-76
2020/12/06 08:06:54;;;;;;;30.52;13.57;;;2.50;99.90;;;;;;5060190;28;20188;-76
2020/12/06 08:09:23;;;;;;;40.17;14.55;;;2.60;99.90;;;;;;5056980;28;20679;-78
2020/12/06 08:11:52;;;;;;;34.10;14.02;;;2.60;99.90;;;;;;5058966;28;20220;-77
2020/12/06 08:14:20;;;;;;;23.92;13.50;;;2.70;99.90;;;;;;5061088;28;20286;-78
2020/12/06 08:17:05;;;;;;;43.70;16.75;;;2.70;99.90;;;;;;5061910;28;20552;-78
2020/12/06 08:19:31;;;;;;;21.55;12.35;;;2.60;99.90;;;;;;5060245;28;20211;-78
2020/12/06 08:22:01;;;;;;;21.92;13.15;;;2.60;99.90;;;;;;5067879;28;20260;-78
2020/12/06 08:24:29;;;;;;;27.33;12.45;;;2.60;99.90;;;;;;5068933;28;20215;-78
2020/12/06 08:26:56;;;;;;;23.63;13.10;;;2.70;99.90;;;;;;5068713;28;20208;-78
2020/12/06 08:29:37;;;;;;;34.60;17.38;;;2.70;99.90;;;;;;5068575;28;20667;-76
2020/12/06 08:32:05;;;;;;;24.98;13.00;;;2.70;99.90;;;;;;5059142;28;20231;-76
2020/12/06 08:34:31;;;;;;;26.73;13.45;;;2.80;99.90;;;;;;5056790;28;20185;-74
2020/12/06 08:37:16;;;;;;;29.80;12.50;;;2.80;99.90;;;;;;5056197;28;20192;-76
2020/12/06 08:39:42;;;;;;;27.75;13.55;;;2.80;99.90;;;;;;5056375;28;20197;-76
2020/12/06 08:42:17;;;;;;;22.35;11.70;;;2.90;99.90;;;;;;5060063;28;20385;-75
2020/12/06 08:44:56;;;;;;;15.80;10.77;;;2.90;99.90;;;;;;5046054;28;20628;-76
2020/12/06 08:47:24;;;;;;;21.33;12.93;;;2.90;99.90;;;;;;5048880;28;20205;-76
2020/12/06 08:50:06;;;;;;;20.67;11.93;;;2.90;99.90;;;;;;5045055;28;20258;-76
2020/12/06 08:52:33;;;;;;;18.35;11.88;;;3.00;99.90;;;;;;5045323;28;20224;-76
2020/12/06 08:54:59;;;;;;;23.80;12.00;;;3.00;99.90;;;;;;5054116;28;20291;-77
2020/12/06 08:57:27;;;;;;;18.40;10.07;;;3.10;99.90;;;;;;5054796;28;20279;-77
2020/12/06 08:59:53;;;;;;;16.77;9.80;;;3.20;99.90;;;;;;5049808;28;20208;-77
2020/12/06 09:02:25;;;;;;;23.65;11.35;;;3.20;99.90;;;;;;5043601;28;20213;-76
2020/12/06 09:04:52;;;;;;;17.65;9.70;;;3.30;99.90;;;;;;5047627;28;20209;-76
2020/12/06 09:07:19;;;;;;;19.83;10.80;;;3.30;99.90;;;;;;5049847;28;20208;-76
2020/12/06 09:09:46;;;;;;;18.10;11.60;;;3.30;99.90;;;;;;5050014;28;20254;-77
2020/12/06 09:12:12;;;;;;;15.98;9.25;;;3.40;99.90;;;;;;5049283;28;20315;-76
2020/12/06 09:14:39;;;;;;;18.40;9.85;;;3.40;99.90;;;;;;5057399;28;20577;-77
2020/12/06 09:17:05;;;;;;;17.98;9.63;;;3.40;99.90;;;;;;5065973;28;20208;-76
2020/12/06 09:19:32;;;;;;;18.85;11.38;;;3.40;99.90;;;;;;5058427;28;20196;-76
2020/12/06 09:21:59;;;;;;;21.83;11.75;;;3.50;99.90;;;;;;5047414;28;20244;-77
2020/12/06 09:24:25;;;;;;;16.88;10.05;;;3.60;99.90;;;;;;5047474;28;20292;-77
2020/12/06 09:26:51;;;;;;;18.35;10.77;;;3.60;99.90;;;;;;5054744;28;20257;-76
2020/12/06 09:29:18;;;;;;;20.15;12.35;;;3.60;99.90;;;;;;5062864;28;20200;-77
2020/12/06 09:31:44;;;;;;;18.30;10.60;;;3.70;99.90;;;;;;5063368;28;20228;-77
2020/12/06 09:34:11;;;;;;;17.77;9.85;;;3.70;99.90;;;;;;5062794;28;20200;-77
2020/12/06 09:36:42;;;;;;;15.75;8.88;;;3.70;99.90;;;;;;5055858;28;20204;-77
2020/12/06 09:39:10;;;;;;;16.15;9.40;;;3.60;99.90;;;;;;5064160;28;20208;-77
2020/12/06 09:41:38;;;;;;;11.00;8.38;;;3.60;99.90;;;;;;5057284;28;20210;-77
2020/12/06 09:44:07;;;;;;;12.10;7.45;;;3.50;99.90;;;;;;5064348;28;20211;-77
2020/12/06 09:46:33;;;;;;;11.10;7.40;;;3.50;99.90;;;;;;5062640;28;20739;-77
2020/12/06 09:49:00;;;;;;;12.25;7.90;;;3.50;99.90;;;;;;5061500;28;20642;-77
2020/12/06 09:51:26;;;;;;;13.80;8.30;;;3.40;99.90;;;;;;5057387;28;20387;-77
2020/12/06 09:53:53;;;;;;;13.10;7.63;;;3.50;99.90;;;;;;5062882;28;20235;-78
2020/12/06 09:56:26;;;;;;;12.95;7.57;;;3.40;99.90;;;;;;5061306;28;20207;-77
2020/12/06 09:58:52;;;;;;;10.70;7.43;;;3.40;99.90;;;;;;5064487;28;20197;-76
2020/12/06 10:01:20;;;;;;;14.07;8.00;;;3.40;99.90;;;;;;5063701;28;20691;-76
2020/12/06 10:03:46;;;;;;;13.98;8.40;;;3.40;99.90;;;;;;5064451;28;20204;-77
2020/12/06 10:06:13;;;;;;;12.50;7.82;;;3.50;99.90;;;;;;5062820;28;20288;-77
2020/12/06 10:08:40;;;;;;;10.13;7.05;;;3.50;99.90;;;;;;5058212;28;20203;-77
2020/12/06 10:11:07;;;;;;;13.63;7.70;;;3.60;99.90;;;;;;5059754;28;20239;-76
2020/12/06 10:13:33;;;;;;;9.77;7.18;;;3.60;99.90;;;;;;5062890;28;21036;-77
2020/12/06 10:16:00;;;;;;;10.85;7.55;;;3.70;99.90;;;;;;5063587;28;20220;-77
2020/12/06 10:18:26;;;;;;;11.50;7.43;;;3.70;99.90;;;;;;5062158;28;20600;-77
2020/12/06 10:20:53;;;;;;;10.68;7.45;;;3.70;99.90;;;;;;5064965;28;20228;-77
2020/12/06 10:23:20;;;;;;;20.83;13.82;;;3.70;99.90;;;;;;5059009;28;20248;-76
2020/12/06 10:25:46;;;;;;;26.17;14.63;;;3.70;99.90;;;;;;5062530;28;20655;-76
2020/12/06 10:28:13;;;;;;;24.45;14.98;;;3.60;99.90;;;;;;5062627;28;20211;-76
2020/12/06 10:30:40;;;;;;;27.30;16.10;;;3.60;99.90;;;;;;5064514;28;20260;-77
2020/12/06 10:33:06;;;;;;;9.40;6.90;;;3.70;99.90;;;;;;5062513;28;20232;-76
2020/12/06 10:35:33;;;;;;;9.25;5.97;;;3.70;99.90;;;;;;5064149;28;20258;-76
2020/12/06 10:37:59;;;;;;;8.02;6.40;;;3.70;99.90;;;;;;5062334;28;20307;-77
2020/12/06 10:40:26;;;;;;;6.72;5.20;;;3.70;99.90;;;;;;5064867;28;20200;-77
2020/12/06 10:42:52;;;;;;;8.40;6.00;;;3.70;99.90;;;;;;5063888;28;20677;-76
2020/12/06 10:45:19;;;;;;;7.22;5.93;;;3.70;99.90;;;;;;5061994;28;20200;-76
2020/12/06 10:47:46;;;;;;;6.78;5.22;;;3.70;99.90;;;;;;5064595;28;20291;-76
2020/12/06 10:50:12;;;;;;;6.60;5.53;;;3.80;99.90;;;;;;5064948;28;20250;-77
2020/12/06 10:52:39;;;;;;;7.88;5.53;;;3.80;99.90;;;;;;5062122;28;20307;-77
2020/12/06 10:55:05;;;;;;;7.00;5.32;;;3.80;99.90;;;;;;5058928;28;20300;-76
2020/12/06 10:57:32;;;;;;;6.93;5.63;;;3.80;99.90;;;;;;5053785;28;20207;-76
2020/12/06 10:59:58;;;;;;;7.72;6.00;;;3.80;99.90;;;;;;5056604;28;20291;-77
2020/12/06 11:02:25;;;;;;;6.32;5.05;;;3.80;99.90;;;;;;5065233;28;21040;-77
2020/12/06 11:04:52;;;;;;;8.20;5.68;;;3.80;99.90;;;;;;5064945;28;20895;-76
2020/12/06 11:07:18;;;;;;;7.50;5.60;;;3.80;99.90;;;;;;5065831;28;20619;-76
2020/12/06 11:09:46;;;;;;;6.22;4.75;;;3.80;99.90;;;;;;5060150;28;20204;-74
2020/12/06 11:12:14;;;;;;;6.25;4.95;;;3.80;99.90;;;;;;5060845;28;20237;-76
2020/12/06 11:14:41;;;;;;;6.78;5.82;;;3.90;99.90;;;;;;5066879;28;20197;-77
2020/12/06 11:17:07;;;;;;;11.18;6.53;;;3.90;99.90;;;;;;5064465;28;20299;-76
2020/12/06 11:19:35;;;;;;;6.57;5.88;;;3.90;99.90;;;;;;5061182;28;20295;-76
2020/12/06 11:22:03;;;;;;;6.93;5.55;;;3.90;99.90;;;;;;5064520;28;20219;-76
2020/12/06 11:24:32;;;;;;;7.00;5.30;;;3.90;99.90;;;;;;5065191;28;20311;-75
2020/12/06 11:26:58;;;;;;;6.93;5.97;;;4.00;99.90;;;;;;5064781;28;20582;-77
2020/12/06 11:29:25;;;;;;;18.13;12.82;;;3.90;99.90;;;;;;5063588;28;20202;-77
2020/12/06 11:31:52;;;;;;;17.00;11.90;;;3.90;99.90;;;;;;5063540;28;20645;-77
2020/12/06 11:34:18;;;;;;;16.33;12.07;;;3.90;99.90;;;;;;5061903;28;20269;-77
2020/12/06 11:36:48;;;;;;;10.55;6.32;;;4.00;99.90;;;;;;5064499;28;20265;-77
2020/12/06 11:39:15;;;;;;;9.70;6.65;;;4.00;99.90;;;;;;5060387;28;20754;-78
2020/12/06 11:41:42;;;;;;;8.23;5.95;;;4.00;99.90;;;;;;5062344;28;20309;-77
2020/12/06 11:44:08;;;;;;;7.32;5.65;;;4.10;99.90;;;;;;5063380;28;20942;-77
2020/12/06 11:46:34;;;;;;;8.98;5.93;;;4.00;99.90;;;;;;5064259;28;20303;-77
2020/12/06 11:49:01;;;;;;;6.40;5.80;;;4.10;99.90;;;;;;5064197;28;20210;-77
2020/12/06 11:51:27;;;;;;;6.82;5.90;;;4.20;99.90;;;;;;5063352;28;20216;-77
2020/12/06 11:53:54;;;;;;;6.68;5.90;;;4.20;99.90;;;;;;5063830;28;20193;-77
2020/12/06 11:56:22;;;;;;;7.85;6.20;;;4.30;99.90;;;;;;5063677;28;20209;-77
2020/12/06 11:58:49;;;;;;;7.40;6.30;;;4.30;99.90;;;;;;5064265;28;20255;-77
2020/12/06 12:01:15;;;;;;;7.47;6.30;;;4.40;99.90;;;;;;5060169;28;20208;-77
2020/12/06 12:03:42;;;;;;;10.93;6.80;;;4.30;99.90;;;;;;5062419;28;20295;-77
2020/12/06 12:06:08;;;;;;;8.15;6.43;;;4.40;99.90;;;;;;5063825;28;20212;-78
2020/12/06 12:08:34;;;;;;;6.28;5.68;;;4.40;99.90;;;;;;5063484;28;20211;-77
2020/12/06 12:11:01;;;;;;;9.25;6.65;;;4.50;99.90;;;;;;5063464;28;20216;-77
2020/12/06 12:13:27;;;;;;;9.95;6.10;;;4.50;99.90;;;;;;5062374;28;20223;-77
2020/12/06 12:15:54;;;;;;;7.55;6.20;;;4.50;99.90;;;;;;5063343;28;20206;-77
2020/12/06 12:18:20;;;;;;;7.35;6.55;;;4.60;99.90;;;;;;5064081;28;20200;-76
2020/12/06 12:20:46;;;;;;;8.20;6.15;;;4.60;99.90;;;;;;5063412;28;20576;-77
2020/12/06 12:23:12;;;;;;;7.65;5.10;;;4.60;99.90;;;;;;5062992;28;20224;-77
2020/12/06 12:25:39;;;;;;;6.32;5.35;;;4.70;99.90;;;;;;5062995;28;20201;-77
2020/12/06 12:28:06;;;;;;;7.63;5.80;;;4.70;99.90;;;;;;5063510;28;20212;-77
2020/12/06 12:30:32;;;;;;;6.55;5.38;;;4.70;99.90;;;;;;5060182;28;20220;-77
2020/12/06 12:32:58;;;;;;;8.40;6.15;;;4.70;99.90;;;;;;5059142;28;20289;-76
2020/12/06 12:35:25;;;;;;;5.93;5.30;;;4.70;99.90;;;;;;5063187;28;20204;-77
2020/12/06 12:37:51;;;;;;;7.38;6.05;;;4.70;99.90;;;;;;5062825;28;20243;-76
2020/12/06 12:40:17;;;;;;;5.30;4.80;;;4.70;99.90;;;;;;5059139;28;20200;-77
2020/12/06 12:42:46;;;;;;;7.75;6.03;;;4.70;99.90;;;;;;5062618;28;20220;-76